Time;durP1;ratioP1;P1;durP2;ratioP2;P2;SDS_P1;SDS_P2;PMS_P1;PMS_P2;Temp;Humidity;BMP_temperature;BMP_pressure;BME280_temperature;BME280_humidity;BME280_pressure;Samples;Min_cycle;Max_cycle;Signal;HPM_P1;HPM_P2
2021/10/20 00:00:51;;;;;;;;;;;16.40;99.90;;;;;;5000371;28;19968;-79
2021/10/20 00:03:17;;;;;;;;;;;16.40;99.90;;;;;;4996432;28;20334;-77
2021/10/20 00:05:42;;;;;;;;;;;16.50;99.90;;;;;;5014078;28;19921;-77
2021/10/20 00:08:08;;;;;;;;;;;16.40;99.90;;;;;;4995882;28;19914;-79
2021/10/20 00:10:34;;;;;;;;;;;16.40;99.90;;;;;;5013631;28;19918;-79
2021/10/20 00:13:00;;;;;;;;;;;16.40;99.90;;;;;;4994954;28;20302;-78
2021/10/20 00:15:26;;;;;;;;;;;16.40;99.90;;;;;;4995191;28;19913;-77
2021/10/20 00:17:51;;;;;;;;;;;16.30;99.90;;;;;;5012443;28;19920;-79
2021/10/20 00:20:21;;;;;;;;;;;16.40;99.90;;;;;;5013770;28;19955;-78
2021/10/20 00:22:46;;;;;;;;;;;16.40;99.90;;;;;;4994848;28;19959;-79
2021/10/20 00:25:13;;;;;;;;;;;16.40;99.90;;;;;;5013239;28;19979;-78
2021/10/20 00:27:38;;;;;;;;;;;16.40;99.90;;;;;;5012104;28;19969;-78
2021/10/20 00:30:04;;;;;;;;;;;16.30;99.90;;;;;;5013595;28;20008;-78
2021/10/20 00:32:30;;;;;;;;;;;16.30;99.90;;;;;;4995600;28;20330;-78
2021/10/20 00:34:55;;;;;;;;;;;16.40;99.90;;;;;;4995679;28;19933;-77
2021/10/20 00:37:20;;;;;;;;;;;16.30;99.90;;;;;;5012811;28;19913;-78
2021/10/20 00:39:46;;;;;;;;;;;16.40;99.90;;;;;;5010994;28;19960;-78
2021/10/20 00:42:12;;;;;;;;;;;16.40;99.90;;;;;;4995276;28;20077;-79
2021/10/20 00:44:51;;;;;;;;;;;16.40;99.90;;;;;;5013500;28;19913;-79
2021/10/20 00:47:17;;;;;;;;;;;16.40;99.90;;;;;;5012397;28;20322;-78
2021/10/20 00:49:43;;;;;;;;;;;16.40;99.90;;;;;;4995492;28;19920;-77
2021/10/20 00:52:08;;;;;;;;;;;16.40;99.90;;;;;;5013588;28;20340;-78
2021/10/20 00:54:35;;;;;;;;;;;16.40;99.90;;;;;;4995212;28;19947;-78
2021/10/20 00:57:00;;;;;;;;;;;16.40;99.90;;;;;;4995084;28;20013;-78
2021/10/20 00:59:26;;;;;;;;;;;16.40;99.90;;;;;;5012982;28;19949;-79
2021/10/20 01:01:52;;;;;;;;;;;16.40;99.90;;;;;;5012921;28;19922;-79
2021/10/20 01:04:17;;;;;;;;;;;16.40;99.90;;;;;;4984466;28;19940;-79
2021/10/20 01:06:43;;;;;;;;;;;16.40;99.90;;;;;;5009893;28;19975;-78
2021/10/20 01:09:08;;;;;;;;;;;16.40;99.90;;;;;;4994927;28;20338;-79
2021/10/20 01:11:34;;;;;;;;;;;16.50;99.90;;;;;;5013655;28;20293;-79
2021/10/20 01:14:01;;;;;;;;;;;16.40;99.90;;;;;;5011672;28;20425;-78
2021/10/20 01:16:27;;;;;;;;;;;16.40;99.90;;;;;;4995954;28;19967;-79
2021/10/20 01:18:53;;;;;;;;;;;16.40;99.90;;;;;;5013244;28;19920;-78
2021/10/20 01:21:20;;;;;;;;;;;16.40;99.90;;;;;;5013790;28;20290;-78
2021/10/20 01:23:46;;;;;;;;;;;16.50;99.90;;;;;;5012729;28;19918;-79
2021/10/20 01:26:12;;;;;;;;;;;16.40;99.90;;;;;;5011433;28;19920;-79
2021/10/20 01:28:37;;;;;;;;;;;16.30;99.90;;;;;;4994893;28;19921;-79
2021/10/20 01:31:03;;;;;;;;;;;16.40;99.90;;;;;;5013428;28;19940;-79
2021/10/20 01:33:29;;;;;;;;;;;16.30;99.90;;;;;;5012973;28;20071;-79
2021/10/20 01:35:54;;;;;;;;;;;16.30;99.90;;;;;;5013319;28;20035;-78
2021/10/20 01:38:20;;;;;;;;;;;16.30;99.90;;;;;;4995983;28;19913;-78
2021/10/20 01:40:45;;;;;;;;;;;16.30;99.90;;;;;;5012824;28;20370;-78
2021/10/20 01:43:11;;;;;;;;;;;16.40;99.90;;;;;;5012691;28;19913;-79
2021/10/20 01:45:37;;;;;;;;;;;16.40;99.90;;;;;;4994987;28;19913;-79
2021/10/20 01:48:02;;;;;;;;;;;16.40;99.90;;;;;;5013162;28;19913;-78
2021/10/20 01:50:28;;;;;;;;;;;16.40;99.90;;;;;;5015636;28;19914;-79
2021/10/20 01:52:54;;;;;;;;;;;16.50;99.90;;;;;;5013886;28;19917;-79
2021/10/20 01:55:20;;;;;;;;;;;16.50;99.90;;;;;;4998944;28;20233;-80
2021/10/20 01:57:46;;;;;;;;;;;16.40;99.90;;;;;;5017021;28;19921;-78
2021/10/20 02:00:12;;;;;;;;;;;16.40;99.90;;;;;;5016215;28;19917;-79
2021/10/20 02:02:38;;;;;;;;;;;16.40;99.90;;;;;;4997324;28;19960;-79
2021/10/20 02:05:05;;;;;;;;;;;16.40;99.90;;;;;;4997590;28;20393;-79
2021/10/20 02:07:30;;;;;;;;;;;16.40;99.90;;;;;;4997885;28;19959;-79
2021/10/20 02:09:56;;;;;;;;;;;16.40;99.90;;;;;;5015351;28;19918;-79
2021/10/20 02:12:21;;;;;;;;;;;16.30;99.90;;;;;;5015801;28;20290;-79
2021/10/20 02:14:47;;;;;;;;;;;16.30;99.90;;;;;;5015846;28;19914;-78
2021/10/20 02:17:12;;;;;;;;;;;16.30;99.90;;;;;;4997965;28;19933;-79
2021/10/20 02:19:38;;;;;;;;;;;16.30;99.90;;;;;;4997928;28;19913;-79
2021/10/20 02:22:04;;;;;;;;;;;16.30;99.90;;;;;;4998205;28;20378;-79
2021/10/20 02:24:30;;;;;;;;;;;16.40;99.90;;;;;;4998317;28;19913;-78
2021/10/20 02:26:55;;;;;;;;;;;16.40;99.90;;;;;;5015056;28;19936;-79
2021/10/20 02:29:21;;;;;;;;;;;16.40;99.90;;;;;;5004447;28;19913;-79
2021/10/20 02:31:46;;;;;;;;;;;16.40;99.90;;;;;;5005930;28;19971;-79
2021/10/20 02:34:13;;;;;;;;;;;16.40;99.90;;;;;;5015901;28;19914;-78
2021/10/20 02:36:38;;;;;;;;;;;16.40;99.90;;;;;;4997601;28;19932;-78
2021/10/20 02:39:04;;;;;;;;;;;16.40;99.90;;;;;;5015025;28;19969;-79
2021/10/20 02:41:29;;;;;;;;;;;16.40;99.90;;;;;;5015584;28;19917;-78
2021/10/20 02:43:55;;;;;;;;;;;16.40;99.90;;;;;;4997036;28;19952;-78
2021/10/20 02:46:20;;;;;;;;;;;16.50;99.90;;;;;;4996904;28;19921;-78
2021/10/20 02:48:46;;;;;;;;;;;16.50;99.90;;;;;;5015243;28;20004;-78
2021/10/20 02:51:12;;;;;;;;;;;16.50;99.90;;;;;;4996927;28;19944;-79
2021/10/20 02:53:37;;;;;;;;;;;16.50;99.90;;;;;;5015342;28;19974;-79
2021/10/20 02:56:03;;;;;;;;;;;16.50;99.90;;;;;;4997200;28;20012;-77
2021/10/20 02:58:28;;;;;;;;;;;16.40;99.90;;;;;;4997084;28;20259;-78
2021/10/20 03:00:54;;;;;;;;;;;16.40;99.90;;;;;;4995086;28;19918;-78
2021/10/20 03:03:19;;;;;;;;;;;16.40;99.90;;;;;;4997924;28;19913;-78
2021/10/20 03:05:45;;;;;;;;;;;16.40;99.90;;;;;;5015024;28;20382;-79
2021/10/20 03:08:11;;;;;;;;;;;16.40;99.90;;;;;;5014581;28;19914;-79
2021/10/20 03:10:37;;;;;;;;;;;16.30;99.90;;;;;;5014262;28;20372;-79
2021/10/20 03:13:03;;;;;;;;;;;16.30;99.90;;;;;;5014693;28;19921;-78
2021/10/20 03:15:28;;;;;;;;;;;16.40;99.90;;;;;;5013819;28;19976;-79
2021/10/20 03:17:54;;;;;;;;;;;16.40;99.90;;;;;;5014419;28;19913;-79
2021/10/20 03:20:19;;;;;;;;;;;16.40;99.90;;;;;;5014223;28;20024;-79
2021/10/20 03:22:45;;;;;;;;;;;16.40;99.90;;;;;;4996097;28;20278;-78
2021/10/20 03:25:11;;;;;;;;;;;16.30;99.90;;;;;;4996380;28;19941;-79
2021/10/20 03:27:40;;;;;;;;;;;16.30;99.90;;;;;;5014507;28;19914;-79
2021/10/20 03:30:06;;;;;;;;;;;16.30;99.90;;;;;;5014264;28;19914;-79
2021/10/20 03:32:32;;;;;;;;;;;16.30;99.90;;;;;;4997087;28;20444;-80
2021/10/20 03:34:57;;;;;;;;;;;16.30;99.90;;;;;;5014328;28;19914;-79
2021/10/20 03:37:23;;;;;;;;;;;16.30;99.90;;;;;;5014307;28;19956;-81
2021/10/20 03:39:48;;;;;;;;;;;16.30;99.90;;;;;;5014482;28;19960;-80
2021/10/20 03:42:13;;;;;;;;;;;16.30;99.90;;;;;;4996611;28;20392;-79
2021/10/20 03:44:39;;;;;;;;;;;16.40;99.90;;;;;;4996943;28;19921;-79
2021/10/20 03:47:04;;;;;;;;;;;16.40;99.90;;;;;;5014816;28;19913;-78
2021/10/20 03:49:30;;;;;;;;;;;16.50;99.90;;;;;;5013764;28;19998;-79
2021/10/20 03:51:55;;;;;;;;;;;16.50;99.90;;;;;;5014616;28;19917;-80
2021/10/20 03:54:21;;;;;;;;;;;16.50;99.90;;;;;;5014356;28;20012;-79
2021/10/20 03:56:46;;;;;;;;;;;16.50;99.90;;;;;;5013870;28;19920;-78
2021/10/20 03:59:12;;;;;;;;;;;16.50;99.90;;;;;;5013867;28;19920;-79
2021/10/20 04:01:39;;;;;;;;;;;16.50;99.90;;;;;;4996214;28;19917;-79
2021/10/20 04:04:04;;;;;;;;;;;16.50;99.90;;;;;;5013648;28;19968;-79
2021/10/20 04:06:30;;;;;;;;;;;16.50;99.90;;;;;;4996916;28;19913;-80
2021/10/20 04:08:55;;;;;;;;;;;16.40;99.90;;;;;;5014054;28;19960;-80
2021/10/20 04:11:21;;;;;;;;;;;16.40;99.90;;;;;;5013833;28;19920;-79
2021/10/20 04:13:46;;;;;;;;;;;16.40;99.90;;;;;;4995023;28;19924;-80
2021/10/20 04:16:12;;;;;;;;;;;16.40;99.90;;;;;;5013687;28;19913;-79
2021/10/20 04:18:37;;;;;;;;;;;16.40;99.90;;;;;;5014095;28;19920;-78
2021/10/20 04:21:03;;;;;;;;;;;16.40;99.90;;;;;;4995749;28;19921;-79
2021/10/20 04:23:28;;;;;;;;;;;16.50;99.90;;;;;;4996025;28;20352;-80
2021/10/20 04:25:54;;;;;;;;;;;16.50;99.90;;;;;;4995814;28;19953;-79
2021/10/20 04:28:19;;;;;;;;;;;16.50;99.90;;;;;;4996718;28;20239;-78
2021/10/20 04:30:45;;;;;;;;;;;16.40;99.90;;;;;;5013386;28;19914;-78
2021/10/20 04:33:10;;;;;;;;;;;16.40;99.90;;;;;;4995834;28;19913;-77
2021/10/20 04:35:36;;;;;;;;;;;16.40;99.90;;;;;;4995988;28;19920;-78
2021/10/20 04:38:02;;;;;;;;;;;16.50;99.90;;;;;;4996342;28;20381;-77
2021/10/20 04:40:27;;;;;;;;;;;16.50;99.90;;;;;;4996013;28;19922;-79
2021/10/20 04:42:53;;;;;;;;;;;16.50;99.90;;;;;;5013605;28;19995;-78
2021/10/20 04:45:19;;;;;;;;;;;16.60;99.90;;;;;;5013951;28;19921;-78
2021/10/20 04:47:44;;;;;;;;;;;16.70;99.90;;;;;;5013598;28;20020;-78
2021/10/20 04:50:10;;;;;;;;;;;16.60;99.90;;;;;;4995883;28;20397;-80
2021/10/20 04:52:36;;;;;;;;;;;16.70;99.90;;;;;;5013444;28;19917;-79
2021/10/20 04:55:02;;;;;;;;;;;16.70;99.90;;;;;;5012502;28;19913;-79
2021/10/20 04:57:28;;;;;;;;;;;16.60;99.90;;;;;;5013469;28;19914;-79
2021/10/20 04:59:53;;;;;;;;;;;16.70;99.90;;;;;;5013706;28;19921;-79
2021/10/20 05:02:19;;;;;;;;;;;16.70;99.90;;;;;;5013517;28;20333;-79
2021/10/20 05:04:44;;;;;;;;;;;16.70;99.90;;;;;;4995969;28;19970;-79
2021/10/20 05:07:13;;;;;;;;;;;16.70;99.90;;;;;;5013036;28;19921;-80
2021/10/20 05:09:39;;;;;;;;;;;16.70;99.90;;;;;;4995439;28;19920;-79
2021/10/20 05:12:05;;;;;;;;;;;16.70;99.90;;;;;;5013883;28;19921;-78
2021/10/20 05:14:31;;;;;;;;;;;16.70;99.90;;;;;;5013708;28;19913;-79
2021/10/20 05:16:56;;;;;;;;;;;16.80;99.90;;;;;;4992420;28;20312;-79
2021/10/20 05:19:22;;;;;;;;;;;16.80;99.90;;;;;;5013030;28;19968;-79
2021/10/20 05:21:47;;;;;;;;;;;16.80;99.90;;;;;;5011478;28;19917;-78
2021/10/20 05:24:13;;;;;;;;;;;16.80;99.90;;;;;;5013651;28;19924;-78
2021/10/20 05:26:38;;;;;;;;;;;16.90;99.90;;;;;;4998750;28;20381;-80
2021/10/20 05:29:04;;;;;;;;;;;16.90;99.90;;;;;;5017134;28;19974;-80
2021/10/20 05:31:30;;;;;;;;;;;16.90;99.90;;;;;;5016678;28;19921;-80
2021/10/20 05:33:55;;;;;;;;;;;16.90;99.90;;;;;;4999143;28;20406;-81
2021/10/20 05:36:23;;;;;;;;;;;16.90;99.90;;;;;;5016546;28;19913;-77
2021/10/20 05:38:48;;;;;;;;;;;16.90;99.90;;;;;;5017421;28;19995;-78
2021/10/20 05:41:14;;;;;;;;;;;16.80;99.90;;;;;;5016334;28;20404;-79
2021/10/20 05:43:39;;;;;;;;;;;16.80;99.90;;;;;;5016968;28;20597;-78
2021/10/20 05:46:05;;;;;;;;;;;16.80;99.90;;;;;;5016310;28;19914;-78
2021/10/20 05:48:30;;;;;;;;;;;16.80;99.90;;;;;;4999216;28;19988;-79
2021/10/20 05:50:56;;;;;;;;;;;16.80;99.90;;;;;;5016676;28;19948;-79
2021/10/20 05:53:21;;;;;;;;;;;16.80;99.90;;;;;;4998617;28;19920;-80
2021/10/20 05:55:47;;;;;;;;;;;16.70;99.90;;;;;;5016350;28;19913;-80
2021/10/20 05:58:13;;;;;;;;;;;16.70;99.90;;;;;;5016386;28;20019;-80
2021/10/20 06:00:39;;;;;;;;;;;16.70;99.90;;;;;;5016732;28;19987;-80
2021/10/20 06:03:05;;;;;;;;;;;16.80;99.90;;;;;;5016856;28;19917;-80
2021/10/20 06:05:30;;;;;;;;;;;16.70;99.90;;;;;;4998821;28;19921;-79
2021/10/20 06:07:59;;;;;;;;;;;16.70;99.90;;;;;;5016226;28;20426;-80
2021/10/20 06:10:25;;;;;;;;;;;16.70;99.90;;;;;;4998589;28;19913;-79
2021/10/20 06:12:50;;;;;;;;;;;16.60;99.90;;;;;;4995397;28;20402;-79
2021/10/20 06:15:21;;;;;;;;;;;16.60;99.90;;;;;;4994901;28;19928;-81
2021/10/20 06:17:47;;;;;;;;;;;16.60;99.90;;;;;;4996486;28;19921;-80
2021/10/20 06:20:12;;;;;;;;;;;16.70;99.90;;;;;;4995556;28;19922;-78
2021/10/20 06:22:40;;;;;;;;;;;16.70;99.90;;;;;;4994859;28;20069;-79
2021/10/20 06:25:06;;;;;;;;;;;16.60;99.90;;;;;;4979492;28;19921;-79
2021/10/20 06:27:32;;;;;;;;;;;16.60;99.90;;;;;;4993003;28;19914;-78
2021/10/20 06:29:57;;;;;;;;;;;16.60;99.90;;;;;;4995064;28;19914;-80
2021/10/20 06:32:23;;;;;;;;;;;16.60;99.90;;;;;;4988034;28;20367;-80
2021/10/20 06:34:48;;;;;;;;;;;16.60;99.90;;;;;;4992343;28;19920;-81
2021/10/20 06:37:14;;;;;;;;;;;16.70;99.90;;;;;;4995162;28;19918;-76
2021/10/20 06:39:39;;;;;;;;;;;16.70;99.90;;;;;;4995796;28;19968;-76
2021/10/20 06:42:05;;;;;;;;;;;16.70;99.90;;;;;;4995510;28;19918;-79
2021/10/20 06:44:30;;;;;;;;;;;16.70;99.90;;;;;;4995793;28;19913;-79
2021/10/20 06:46:56;;;;;;;;;;;16.60;99.90;;;;;;4994369;28;20473;-79
2021/10/20 06:49:22;;;;;;;;;;;16.70;99.90;;;;;;4993621;28;19968;-79
2021/10/20 06:51:47;;;;;;;;;;;16.70;99.90;;;;;;4994341;28;20306;-79
2021/10/20 06:54:22;;;;;;;;;;;16.70;99.90;;;;;;4995527;28;19918;-78
2021/10/20 06:56:48;;;;;;;;;;;16.70;99.90;;;;;;4996359;28;19959;-79
2021/10/20 06:59:14;;;;;;;;;;;16.60;99.90;;;;;;4991661;28;19960;-79
2021/10/20 07:01:40;;;;;;;;;;;16.50;99.90;;;;;;4992057;28;20318;-80
2021/10/20 07:04:06;;;;;;;;;;;16.40;99.90;;;;;;4991202;28;20286;-81
2021/10/20 07:06:31;;;;;;;;;;;16.40;99.90;;;;;;5003441;28;19953;-79
2021/10/20 07:08:57;;;;;;;;;;;16.40;99.90;;;;;;5020609;28;19902;-77
2021/10/20 07:11:23;;;;;;;;;;;16.30;99.90;;;;;;5022600;28;19910;-77
2021/10/20 07:13:48;;;;;;;;;;;16.30;99.90;;;;;;5038722;28;19918;-79
2021/10/20 07:16:14;;;;;;;;;;;16.10;99.90;;;;;;5002140;28;19921;-80
2021/10/20 07:18:39;;;;;;;;;;;16.10;99.90;;;;;;5016275;28;19914;-81
2021/10/20 07:21:05;;;;;;;;;;;16.10;99.90;;;;;;5016772;28;20009;-83
2021/10/20 07:23:31;;;;;;;;;;;16.00;99.90;;;;;;5015308;28;19920;-80
2021/10/20 07:25:56;;;;;;;;;;;16.00;99.90;;;;;;5017039;28;19920;-78
2021/10/20 07:28:22;;;;;;;;;;;15.90;99.90;;;;;;4997755;28;20380;-79
2021/10/20 07:30:47;;;;;;;;;;;15.80;99.90;;;;;;5015277;28;19936;-79
2021/10/20 07:33:13;;;;;;;;;;;15.90;99.90;;;;;;5016235;28;19917;-79
2021/10/20 07:35:39;;;;;;;;;;;15.80;99.90;;;;;;4998081;28;19913;-80
2021/10/20 07:38:05;;;;;;;;;;;15.90;99.90;;;;;;5014372;28;19963;-81
2021/10/20 07:40:31;;;;;;;;;;;15.80;99.90;;;;;;4980354;28;19965;-82
2021/10/20 07:42:56;;;;;;;;;;;15.80;99.90;;;;;;4984413;28;20381;-79
2021/10/20 07:45:22;;;;;;;;;;;15.80;99.90;;;;;;5017057;28;19949;-78
2021/10/20 07:47:48;;;;;;;;;;;15.80;99.90;;;;;;5014272;28;19917;-79
2021/10/20 07:50:14;;;;;;;;;;;15.80;99.90;;;;;;5000821;28;19924;-80
2021/10/20 07:52:40;;;;;;;;;;;15.70;99.90;;;;;;4999602;28;19921;-78
2021/10/20 07:55:06;;;;;;;;;;;15.70;99.90;;;;;;5018127;28;20271;-80
2021/10/20 07:57:32;;;;;;;;;;;15.70;99.90;;;;;;5003067;28;19952;-79
2021/10/20 07:59:57;;;;;;;;;;;15.80;99.90;;;;;;5012869;28;19913;-79
2021/10/20 08:02:23;;;;;;;;;;;15.80;99.90;;;;;;5018198;28;19932;-77
2021/10/20 08:04:48;;;;;;;;;;;15.70;99.90;;;;;;5036975;28;19902;-81
2021/10/20 08:07:14;;;;;;;;;;;15.70;99.90;;;;;;5037696;28;19901;-79
2021/10/20 08:09:40;;;;;;;;;;;15.80;99.90;;;;;;5020975;28;19901;-78
2021/10/20 08:12:05;;;;;;;;;;;15.80;99.90;;;;;;5021278;28;19910;-78
2021/10/20 08:14:33;;;;;;;;;;;15.80;99.90;;;;;;5038309;28;19901;-77
2021/10/20 08:16:58;;;;;;;;;;;15.80;99.90;;;;;;5036626;28;19914;-76
2021/10/20 08:19:24;;;;;;;;;;;15.90;99.90;;;;;;5038875;28;19977;-76
2021/10/20 08:21:49;;;;;;;;;;;15.90;99.90;;;;;;5020351;28;19945;-76
2021/10/20 08:24:15;;;;;;;;;;;15.90;99.90;;;;;;5038382;28;19908;-81
2021/10/20 08:26:40;;;;;;;;;;;16.00;99.90;;;;;;5038883;28;19960;-80
2021/10/20 08:29:07;;;;;;;;;;;16.00;99.90;;;;;;5021664;28;19936;-81
2021/10/20 08:31:33;;;;;;;;;;;16.20;99.90;;;;;;5020824;28;19921;-80
2021/10/20 08:33:59;;;;;;;;;;;16.20;99.90;;;;;;5037821;28;19902;-78
2021/10/20 08:36:24;;;;;;;;;;;16.40;99.90;;;;;;5037141;28;19940;-79
2021/10/20 08:38:50;;;;;;;;;;;16.50;99.90;;;;;;5013291;28;20530;-78
2021/10/20 08:41:15;;;;;;;;;;;16.50;99.90;;;;;;5001883;28;19948;-78
2021/10/20 08:43:41;;;;;;;;;;;16.60;99.90;;;;;;5021742;28;19921;-78
2021/10/20 08:46:06;;;;;;;;;;;16.70;99.90;;;;;;5022634;28;19920;-79
2021/10/20 08:48:32;;;;;;;;;;;16.80;99.90;;;;;;5007059;28;19953;-78
2021/10/20 08:51:00;;;;;;;;;;;16.90;99.90;;;;;;5004539;28;19913;-77
2021/10/20 08:53:26;;;;;;;;;;;16.90;99.90;;;;;;5023112;28;19913;-78
2021/10/20 08:55:52;;;;;;;;;;;17.00;99.90;;;;;;5024473;28;19959;-78
2021/10/20 08:58:18;;;;;;;;;;;17.00;99.90;;;;;;5024486;28;20331;-78
2021/10/20 09:00:44;;;;;;;;;;;17.00;99.90;;;;;;5006501;28;19960;-78
2021/10/20 09:03:10;;;;;;;;;;;16.90;99.90;;;;;;5005173;28;19968;-78
2021/10/20 09:05:36;;;;;;;;;;;17.00;99.90;;;;;;5001904;28;19918;-78
2021/10/20 09:08:02;;;;;;;;;;;16.90;99.90;;;;;;4999608;28;20364;-78
2021/10/20 09:10:28;;;;;;;;;;;17.00;99.90;;;;;;5019736;28;19920;-78
2021/10/20 09:12:56;;;;;;;;;;;16.90;99.90;;;;;;5001182;28;20055;-79
2021/10/20 09:15:23;;;;;;;;;;;17.10;99.90;;;;;;5013753;28;20386;-77
2021/10/20 09:17:50;;;;;;;;;;;17.10;99.90;;;;;;4998035;28;20008;-77
2021/10/20 09:20:16;;;;;;;;;;;17.20;99.90;;;;;;4995410;28;20004;-78
2021/10/20 09:22:54;;;;;;;;;;;17.10;99.90;;;;;;5013747;28;20436;-78
2021/10/20 09:25:19;;;;;;;;;;;17.20;99.90;;;;;;5002998;28;20025;-78
2021/10/20 09:27:45;;;;;;;;;;;17.20;99.90;;;;;;4995689;28;19960;-77
2021/10/20 09:30:14;;;;;;;;;;;17.20;99.90;;;;;;4994230;28;20365;-78
2021/10/20 09:32:40;;;;;;;;;;;17.10;99.90;;;;;;5014394;28;19914;-78
2021/10/20 09:35:06;;;;;;;;;;;17.20;99.90;;;;;;5011265;28;19921;-78
2021/10/20 09:37:33;;;;;;;;;;;17.30;99.90;;;;;;5012869;28;19913;-78
2021/10/20 09:40:06;;;;;;;;;;;17.30;99.90;;;;;;5013854;28;19913;-78
2021/10/20 09:42:53;;;;;;;;;;;17.20;99.90;;;;;;4995013;28;19963;-78
2021/10/20 09:45:20;;;;;;;;;;;17.20;99.90;;;;;;5012504;28;19984;-78
2021/10/20 09:47:46;;;;;;;;;;;17.20;99.90;;;;;;5013853;28;19918;-78
2021/10/20 09:50:14;;;;;;;;;;;17.20;99.90;;;;;;4994227;28;19921;-78
2021/10/20 09:52:45;;;;;;;;;;;17.20;99.90;;;;;;5011811;28;19913;-77
2021/10/20 09:55:15;;;;;;;;;;;17.20;99.90;;;;;;5012714;28;19967;-78
2021/10/20 09:57:40;;;;;;;;;;;17.20;99.90;;;;;;5012724;28;20408;-78
2021/10/20 10:00:07;;;;;;;;;;;17.20;99.90;;;;;;5010947;28;19932;-78
2021/10/20 10:02:33;;;;;;;;;;;17.20;99.90;;;;;;5012772;28;20017;-78
2021/10/20 10:04:59;;;;;;;;;;;17.20;99.90;;;;;;5006691;28;19917;-79
2021/10/20 10:07:24;;;;;;;;;;;17.20;99.90;;;;;;5017648;28;20516;-78
2021/10/20 10:09:50;;;;;;;;;;;17.30;99.90;;;;;;5003094;28;19914;-80
2021/10/20 10:12:17;;;;;;;;;;;17.30;99.90;;;;;;5004078;28;19928;-78
2021/10/20 10:15:09;;;;;;;;;;;17.40;99.90;;;;;;4998849;28;19918;-79
2021/10/20 10:17:36;;;;;;;;;;;17.60;99.90;;;;;;5013009;28;19917;-78
2021/10/20 10:20:06;;;;;;;;;;;17.80;99.90;;;;;;4998063;28;20012;-77
2021/10/20 10:22:32;;;;;;;;;;;17.90;99.90;;;;;;4996485;28;20456;-79
2021/10/20 10:25:03;;;;;;;;;;;18.00;99.90;;;;;;4998708;28;19913;-78
2021/10/20 10:27:29;;;;;;;;;;;17.90;99.90;;;;;;5015713;28;19914;-80
2021/10/20 10:29:58;;;;;;;;;;;17.90;99.90;;;;;;5015936;28;20684;-80
2021/10/20 10:32:26;;;;;;;;;;;17.90;99.90;;;;;;4996860;28;19921;-78
2021/10/20 10:34:52;;;;;;;;;;;17.90;99.90;;;;;;5017269;28;20393;-79
2021/10/20 10:37:26;;;;;;;;;;;17.80;99.90;;;;;;5018958;28;19914;-79
2021/10/20 10:39:52;;;;;;;;;;;17.90;99.90;;;;;;4999768;28;20301;-79
2021/10/20 10:42:18;;;;;;;;;;;17.90;99.90;;;;;;5016375;28;20302;-79
2021/10/20 10:44:45;;;;;;;;;;;17.90;99.90;;;;;;5015660;28;19914;-78
2021/10/20 10:47:18;;;;;;;;;;;17.80;99.90;;;;;;5016673;28;19914;-79
2021/10/20 10:49:54;;;;;;;;;;;17.80;99.90;;;;;;5009231;28;20060;-81
2021/10/20 10:52:21;;;;;;;;;;;17.90;99.90;;;;;;5011436;28;19913;-78
2021/10/20 10:54:56;;;;;;;;;;;17.80;99.90;;;;;;4995211;28;19937;-81
2021/10/20 10:57:22;;;;;;;;;;;17.80;99.90;;;;;;4997834;28;19921;-79
2021/10/20 11:00:03;;;;;;;;;;;17.90;99.90;;;;;;4994499;28;20154;-78
2021/10/20 11:02:48;;;;;;;;;;;17.90;99.90;;;;;;4993942;28;19940;-78
2021/10/20 11:05:14;;;;;;;;;;;18.00;99.90;;;;;;5013519;28;19917;-79
2021/10/20 11:07:47;;;;;;;;;;;18.10;99.90;;;;;;5014902;28;19966;-80
2021/10/20 11:10:13;;;;;;;;;;;18.10;99.90;;;;;;5014090;28;20251;-79
2021/10/20 11:12:39;;;;;;;;;;;18.00;99.90;;;;;;5014826;28;19922;-81
2021/10/20 11:15:05;;;;;;;;;;;18.10;99.90;;;;;;5014083;28;20302;-78
2021/10/20 11:17:31;;;;;;;;;;;18.10;99.90;;;;;;4995801;28;19921;-79
2021/10/20 11:19:57;;;;;;;;;;;18.10;99.90;;;;;;5015260;28;20370;-80
2021/10/20 11:22:23;;;;;;;;;;;18.10;99.90;;;;;;5012982;28;19932;-81
2021/10/20 11:24:52;;;;;;;;;;;18.10;99.90;;;;;;4996465;28;19914;-79
2021/10/20 11:27:20;;;;;;;;;;;18.00;99.90;;;;;;5015012;28;20003;-79
2021/10/20 11:29:47;;;;;;;;;;;18.00;99.90;;;;;;5014090;28;19968;-79
2021/10/20 11:32:14;;;;;;;;;;;18.00;99.90;;;;;;5013943;28;20389;-79
2021/10/20 11:34:43;;;;;;;;;;;18.00;99.90;;;;;;5013970;28;20362;-80
2021/10/20 11:37:11;;;;;;;;;;;18.00;99.90;;;;;;5012528;28;19920;-81
2021/10/20 11:39:38;;;;;;;;;;;18.00;99.90;;;;;;4997616;28;19917;-81
2021/10/20 11:42:05;;;;;;;;;;;18.00;99.90;;;;;;5015694;28;20325;-83
2021/10/20 11:44:35;;;;;;;;;;;18.00;99.90;;;;;;5013549;28;19913;-83
2021/10/20 11:47:02;;;;;;;;;;;18.10;99.90;;;;;;5014740;28;19920;-79
2021/10/20 11:49:27;;;;;;;;;;;18.10;99.90;;;;;;4995436;28;20374;-81
2021/10/20 11:51:53;;;;;;;;;;;18.10;99.90;;;;;;5013636;28;19917;-79
2021/10/20 11:54:24;;;;;;;;;;;18.10;99.90;;;;;;4992536;28;19940;-81
2021/10/20 11:56:54;;;;;;;;;;;18.10;99.90;;;;;;5014761;28;20341;-79
2021/10/20 11:59:20;;;;;;;;;;;18.10;99.90;;;;;;4994978;28;19913;-80
2021/10/20 12:01:49;;;;;;;;;;;18.10;99.90;;;;;;5013676;28;19953;-79
2021/10/20 12:04:15;;;;;;;;;;;18.10;99.90;;;;;;4994888;28;20027;-84
2021/10/20 12:06:41;;;;;;;;;;;18.10;99.90;;;;;;4994856;28;19921;-80
2021/10/20 12:09:09;;;;;;;;;;;18.10;99.90;;;;;;5013083;28;19943;-81
2021/10/20 12:11:35;;;;;;;;;;;18.10;99.90;;;;;;4996239;28;19972;-81
2021/10/20 12:14:05;;;;;;;;;;;18.10;99.90;;;;;;4995828;28;19953;-82
2021/10/20 12:16:31;;;;;;;;;;;18.20;99.90;;;;;;4996635;28;20294;-81
2021/10/20 12:18:58;;;;;;;;;;;18.20;99.90;;;;;;4995236;28;19913;-82
2021/10/20 12:21:28;;;;;;;;;;;18.20;99.90;;;;;;4995607;28;19940;-82
2021/10/20 12:23:56;;;;;;;;;;;18.20;99.90;;;;;;5011507;28;19971;-80
2021/10/20 12:26:22;;;;;;;;;;;18.20;99.90;;;;;;4994519;28;19913;-83
2021/10/20 12:28:47;;;;;;;;;;;18.20;99.90;;;;;;4976547;28;19963;-82
2021/10/20 12:31:14;;;;;;;;;;;18.20;99.90;;;;;;4997765;28;19917;-83
2021/10/20 12:33:42;;;;;;;;;;;18.30;99.90;;;;;;5011950;28;19924;-82
2021/10/20 12:36:08;;;;;;;;;;;18.30;99.90;;;;;;4990807;28;19913;-81
2021/10/20 12:38:34;;;;;;;;;;;18.30;99.90;;;;;;4996079;28;20044;-81
2021/10/20 12:41:06;;;;;;;;;;;18.40;99.90;;;;;;5014094;28;20332;-81
2021/10/20 12:43:32;;;;;;;;;;;18.40;99.90;;;;;;5013065;28;19913;-80
2021/10/20 12:45:59;;;;;;;;;;;18.50;99.90;;;;;;5014133;28;19924;-79
2021/10/20 12:48:27;;;;;;;;;;;18.50;99.90;;;;;;5013123;28;20004;-80
2021/10/20 12:50:52;;;;;;;;;;;18.60;99.90;;;;;;5012864;28;20318;-79
2021/10/20 12:53:18;;;;;;;;;;;18.60;99.90;;;;;;4994758;28;19968;-79
2021/10/20 12:55:46;;;;;;;;;;;18.70;99.90;;;;;;4995513;28;19921;-78
2021/10/20 12:58:16;;;;;;;;;;;18.70;99.90;;;;;;5014859;28;19920;-79
2021/10/20 13:00:43;;;;;;;;;;;18.70;99.90;;;;;;5012570;28;19917;-79
2021/10/20 13:03:09;;;;;;;;;;;18.70;99.90;;;;;;5013502;28;19952;-79
2021/10/20 13:05:34;;;;;;;;;;;18.70;99.90;;;;;;5011582;28;20416;-78
2021/10/20 13:08:00;;;;;;;;;;;18.70;99.90;;;;;;4996062;28;20374;-79
2021/10/20 13:10:25;;;;;;;;;;;18.80;99.90;;;;;;5012430;28;19976;-80
2021/10/20 13:12:57;;;;;;;;;;;18.80;99.90;;;;;;5013219;28;19921;-78
2021/10/20 13:15:28;;;;;;;;;;;18.80;99.90;;;;;;5012751;28;20406;-79
2021/10/20 13:17:53;;;;;;;;;;;18.80;99.90;;;;;;5013380;28;19924;-79
2021/10/20 13:20:19;;;;;;;;;;;18.90;99.90;;;;;;5011918;28;19914;-79
2021/10/20 13:22:45;;;;;;;;;;;18.90;99.90;;;;;;4995117;28;19920;-80
2021/10/20 13:25:11;;;;;;;;;;;18.90;99.90;;;;;;4992241;28;20207;-80
2021/10/20 13:27:37;;;;;;;;;;;18.90;99.90;;;;;;5012546;28;19921;-80
2021/10/20 13:30:04;;;;;;;;;;;18.90;99.90;;;;;;5010643;28;19917;-78
2021/10/20 13:32:30;;;;;;;;;;;18.90;99.90;;;;;;4995432;28;19914;-78
2021/10/20 13:34:57;;;;;;;;;;;18.90;99.90;;;;;;5013385;28;20385;-77
2021/10/20 13:37:22;;;;;;;;;;;19.00;99.90;;;;;;5012915;28;20374;-78
2021/10/20 13:39:48;;;;;;;;;;;19.00;99.90;;;;;;5013440;28;19914;-79
2021/10/20 13:42:13;;;;;;;;;;;19.10;99.90;;;;;;5013444;28;20416;-78
2021/10/20 13:44:40;;;;;;;;;;;19.10;99.90;;;;;;4995170;28;19961;-79
2021/10/20 13:47:05;;;;;;;;;;;19.10;99.90;;;;;;5016180;28;19967;-81
2021/10/20 13:49:31;;;;;;;;;;;19.10;99.90;;;;;;5017290;28;19918;-79
2021/10/20 13:51:56;;;;;;;;;;;19.10;99.90;;;;;;4999327;28;20369;-79
2021/10/20 13:54:24;;;;;;;;;;;19.10;99.90;;;;;;5017083;28;20445;-78
2021/10/20 13:56:49;;;;;;;;;;;19.00;99.90;;;;;;5015098;28;20366;-79
2021/10/20 13:59:17;;;;;;;;;;;19.00;99.90;;;;;;5017118;28;19914;-78
2021/10/20 14:01:44;;;;;;;;;;;19.00;99.90;;;;;;5016089;28;19928;-80
2021/10/20 14:04:12;;;;;;;;;;;19.00;99.90;;;;;;4998198;28;20007;-80
2021/10/20 14:06:38;;;;;;;;;;;19.00;99.90;;;;;;5016097;28;19989;-79
2021/10/20 14:09:04;;;;;;;;;;;19.00;99.90;;;;;;5014765;28;19936;-78
2021/10/20 14:11:30;;;;;;;;;;;19.00;99.90;;;;;;4999051;28;19917;-80